sensor_id;sensor_type;location;lat;lon;timestamp;temperature;humidity
21302;DHT22;10810;48.270;9.996;2023-03-16T00:01:24;0.90;99.90
21302;DHT22;10810;48.270;9.996;2023-03-16T00:04:04;1.00;99.90
21302;DHT22;10810;48.270;9.996;2023-03-16T00:06:50;1.00;99.90
21302;DHT22;10810;48.270;9.996;2023-03-16T00:09:51;0.90;99.90
21302;DHT22;10810;48.270;9.996;2023-03-16T00:15:39;0.90;99.90
21302;DHT22;10810;48.270;9.996;2023-03-16T00:18:38;0.80;99.90
21302;DHT22;10810;48.270;9.996;2023-03-16T00:21:10;0.30;99.90
21302;DHT22;10810;48.270;9.996;2023-03-16T00:24:00;0.90;99.90
21302;DHT22;10810;48.270;9.996;2023-03-16T00:27:02;0.80;99.90
21302;DHT22;10810;48.270;9.996;2023-03-16T00:29:40;0.70;99.90
21302;DHT22;10810;48.270;9.996;2023-03-16T00:32:54;0.60;99.90
21302;DHT22;10810;48.270;9.996;2023-03-16T00:35:46;0.70;99.90
21302;DHT22;10810;48.270;9.996;2023-03-16T00:38:43;0.60;99.90
21302;DHT22;10810;48.270;9.996;2023-03-16T00:41:22;0.60;99.90
21302;DHT22;10810;48.270;9.996;2023-03-16T00:43:55;0.60;99.90
21302;DHT22;10810;48.270;9.996;2023-03-16T00:46:32;0.50;99.90
21302;DHT22;10810;48.270;9.996;2023-03-16T00:49:33;0.60;99.90
21302;DHT22;10810;48.270;9.996;2023-03-16T00:52:16;0.60;99.90
21302;DHT22;10810;48.270;9.996;2023-03-16T00:55:12;0.70;99.90
21302;DHT22;10810;48.270;9.996;2023-03-16T00:58:05;0.60;99.90
21302;DHT22;10810;48.270;9.996;2023-03-16T01:00:56;0.50;99.90
21302;DHT22;10810;48.270;9.996;2023-03-16T01:03:34;0.50;99.90
21302;DHT22;10810;48.270;9.996;2023-03-16T01:06:36;0.10;99.90
21302;DHT22;10810;48.270;9.996;2023-03-16T01:09:08;0.30;99.90
21302;DHT22;10810;48.270;9.996;2023-03-16T01:12:03;0.30;99.90
21302;DHT22;10810;48.270;9.996;2023-03-16T01:14:37;0.30;99.90
21302;DHT22;10810;48.270;9.996;2023-03-16T01:17:13;0.30;99.90
21302;DHT22;10810;48.270;9.996;2023-03-16T01:19:45;0.20;99.90
21302;DHT22;10810;48.270;9.996;2023-03-16T01:22:17;0.20;99.90
21302;DHT22;10810;48.270;9.996;2023-03-16T01:25:05;0.40;99.90
21302;DHT22;10810;48.270;9.996;2023-03-16T01:28:12;0.10;99.90
21302;DHT22;10810;48.270;9.996;2023-03-16T01:30:51;0.10;99.90
21302;DHT22;10810;48.270;9.996;2023-03-16T01:33:28;0.10;99.90
21302;DHT22;10810;48.270;9.996;2023-03-16T01:36:03;0.10;99.90
21302;DHT22;10810;48.270;9.996;2023-03-16T01:38:44;-0.60;99.90
21302;DHT22;10810;48.270;9.996;2023-03-16T01:41:15;-0.10;99.90
21302;DHT22;10810;48.270;9.996;2023-03-16T01:43:56;-0.10;99.90
21302;DHT22;10810;48.270;9.996;2023-03-16T01:46:38;-0.10;99.90
21302;DHT22;10810;48.270;9.996;2023-03-16T01:49:13;-0.10;99.90
21302;DHT22;10810;48.270;9.996;2023-03-16T01:52:00;0.00;99.90
21302;DHT22;10810;48.270;9.996;2023-03-16T01:54:47;0.00;99.90
21302;DHT22;10810;48.270;9.996;2023-03-16T01:57:34;-0.20;99.90
21302;DHT22;10810;48.270;9.996;2023-03-16T02:00:20;-0.30;99.90
21302;DHT22;10810;48.270;9.996;2023-03-16T02:03:07;-0.10;99.90
21302;DHT22;10810;48.270;9.996;2023-03-16T02:05:46;-0.10;99.90
21302;DHT22;10810;48.270;9.996;2023-03-16T02:08:30;-0.10;99.90
21302;DHT22;10810;48.270;9.996;2023-03-16T02:11:08;-0.10;99.90
21302;DHT22;10810;48.270;9.996;2023-03-16T02:13:37;-0.20;99.90
21302;DHT22;10810;48.270;9.996;2023-03-16T02:16:09;-0.20;99.90
21302;DHT22;10810;48.270;9.996;2023-03-16T02:18:42;-0.40;99.90
21302;DHT22;10810;48.270;9.996;2023-03-16T02:21:19;-0.30;99.90
21302;DHT22;10810;48.270;9.996;2023-03-16T02:23:55;-0.70;99.90
21302;DHT22;10810;48.270;9.996;2023-03-16T02:26:32;-0.50;99.90
21302;DHT22;10810;48.270;9.996;2023-03-16T02:29:19;-0.50;99.90
21302;DHT22;10810;48.270;9.996;2023-03-16T02:31:59;-0.50;99.90
21302;DHT22;10810;48.270;9.996;2023-03-16T02:34:30;-0.40;99.90
21302;DHT22;10810;48.270;9.996;2023-03-16T02:37:01;-0.40;99.90
21302;DHT22;10810;48.270;9.996;2023-03-16T02:39:32;-0.40;99.90
21302;DHT22;10810;48.270;9.996;2023-03-16T02:42:08;-0.40;99.90
21302;DHT22;10810;48.270;9.996;2023-03-16T02:44:57;0.10;99.90
21302;DHT22;10810;48.270;9.996;2023-03-16T02:47:39;-0.80;99.90
21302;DHT22;10810;48.270;9.996;2023-03-16T02:50:25;-0.30;99.90
21302;DHT22;10810;48.270;9.996;2023-03-16T02:53:14;-0.50;99.90
21302;DHT22;10810;48.270;9.996;2023-03-16T02:55:52;-0.40;99.90
21302;DHT22;10810;48.270;9.996;2023-03-16T02:58:26;-0.50;99.90
21302;DHT22;10810;48.270;9.996;2023-03-16T03:01:16;-0.40;99.90
21302;DHT22;10810;48.270;9.996;2023-03-16T03:03:51;-0.60;99.90
21302;DHT22;10810;48.270;9.996;2023-03-16T03:06:32;-0.50;99.90
21302;DHT22;10810;48.270;9.996;2023-03-16T03:09:05;-0.50;99.90
21302;DHT22;10810;48.270;9.996;2023-03-16T03:11:40;-0.60;99.90
21302;DHT22;10810;48.270;9.996;2023-03-16T03:14:22;-1.20;99.90
21302;DHT22;10810;48.270;9.996;2023-03-16T03:16:57;0.10;99.90
21302;DHT22;10810;48.270;9.996;2023-03-16T03:19:47;-0.50;99.90
21302;DHT22;10810;48.270;9.996;2023-03-16T03:22:14;-0.60;99.90
21302;DHT22;10810;48.270;9.996;2023-03-16T03:24:43;-0.60;99.90
21302;DHT22;10810;48.270;9.996;2023-03-16T03:27:10;-0.70;99.90
21302;DHT22;10810;48.270;9.996;2023-03-16T03:29:43;-0.80;99.90
21302;DHT22;10810;48.270;9.996;2023-03-16T03:32:21;-0.90;99.90
21302;DHT22;10810;48.270;9.996;2023-03-16T03:35:15;-1.50;99.90
21302;DHT22;10810;48.270;9.996;2023-03-16T03:37:52;-1.00;99.90
21302;DHT22;10810;48.270;9.996;2023-03-16T03:40:23;-0.40;99.90
21302;DHT22;10810;48.270;9.996;2023-03-16T03:42:56;-0.80;99.90
21302;DHT22;10810;48.270;9.996;2023-03-16T03:45:27;-0.70;99.90
21302;DHT22;10810;48.270;9.996;2023-03-16T03:48:01;-0.90;99.90
21302;DHT22;10810;48.270;9.996;2023-03-16T03:50:45;-1.00;99.90
21302;DHT22;10810;48.270;9.996;2023-03-16T03:53:17;-1.20;99.90
21302;DHT22;10810;48.270;9.996;2023-03-16T03:55:47;-0.90;99.90
21302;DHT22;10810;48.270;9.996;2023-03-16T03:58:26;-0.20;99.90
21302;DHT22;10810;48.270;9.996;2023-03-16T04:00:56;-0.90;99.90
21302;DHT22;10810;48.270;9.996;2023-03-16T04:03:27;-0.80;99.90
21302;DHT22;10810;48.270;9.996;2023-03-16T04:05:56;-0.80;99.90
21302;DHT22;10810;48.270;9.996;2023-03-16T04:08:24;-0.60;99.90
21302;DHT22;10810;48.270;9.996;2023-03-16T04:10:53;-0.80;99.90
21302;DHT22;10810;48.270;9.996;2023-03-16T04:13:26;0.00;99.90
21302;DHT22;10810;48.270;9.996;2023-03-16T04:15:57;-0.20;99.90
21302;DHT22;10810;48.270;9.996;2023-03-16T04:18:29;-0.50;99.90
21302;DHT22;10810;48.270;9.996;2023-03-16T04:21:07;-0.60;99.90
21302;DHT22;10810;48.270;9.996;2023-03-16T04:23:52;-0.40;99.90
21302;DHT22;10810;48.270;9.996;2023-03-16T04:26:21;-0.70;99.90
21302;DHT22;10810;48.270;9.996;2023-03-16T04:28:52;-0.80;99.90
21302;DHT22;10810;48.270;9.996;2023-03-16T04:31:21;-0.80;99.90
21302;DHT22;10810;48.270;9.996;2023-03-16T04:33:53;-0.80;99.90
21302;DHT22;10810;48.270;9.996;2023-03-16T04:36:31;-0.80;99.90
21302;DHT22;10810;48.270;9.996;2023-03-16T04:39:03;-0.90;99.90
21302;DHT22;10810;48.270;9.996;2023-03-16T04:41:32;-0.20;99.90
21302;DHT22;10810;48.270;9.996;2023-03-16T04:44:00;-0.80;99.90
21302;DHT22;10810;48.270;9.996;2023-03-16T04:46:32;-0.40;99.90
21302;DHT22;10810;48.270;9.996;2023-03-16T04:49:00;-0.70;99.90
21302;DHT22;10810;48.270;9.996;2023-03-16T04:51:28;-1.10;99.90
21302;DHT22;10810;48.270;9.996;2023-03-16T04:53:57;-1.00;99.90
21302;DHT22;10810;48.270;9.996;2023-03-16T04:56:24;-1.00;99.90
21302;DHT22;10810;48.270;9.996;2023-03-16T04:58:54;-1.00;99.90
21302;DHT22;10810;48.270;9.996;2023-03-16T05:01:25;-1.10;99.90
21302;DHT22;10810;48.270;9.996;2023-03-16T05:04:00;-1.10;99.90
21302;DHT22;10810;48.270;9.996;2023-03-16T05:06:31;-1.00;99.90
21302;DHT22;10810;48.270;9.996;2023-03-16T05:09:00;-0.90;99.90
21302;DHT22;10810;48.270;9.996;2023-03-16T05:11:30;-0.80;99.90
21302;DHT22;10810;48.270;9.996;2023-03-16T05:13:59;-0.60;99.90
21302;DHT22;10810;48.270;9.996;2023-03-16T05:16:27;-0.50;99.90
21302;DHT22;10810;48.270;9.996;2023-03-16T05:18:57;-0.90;99.90
21302;DHT22;10810;48.270;9.996;2023-03-16T05:21:24;-1.00;99.90
21302;DHT22;10810;48.270;9.996;2023-03-16T05:23:51;-0.30;99.90
21302;DHT22;10810;48.270;9.996;2023-03-16T05:26:22;-1.10;99.90
21302;DHT22;10810;48.270;9.996;2023-03-16T05:28:52;-0.70;99.90
21302;DHT22;10810;48.270;9.996;2023-03-16T05:31:24;-0.60;99.90
21302;DHT22;10810;48.270;9.996;2023-03-16T05:33:54;0.00;99.90
21302;DHT22;10810;48.270;9.996;2023-03-16T05:36:31;-0.30;99.90
21302;DHT22;10810;48.270;9.996;2023-03-16T05:39:23;-0.70;99.90
21302;DHT22;10810;48.270;9.996;2023-03-16T05:41:57;-0.40;99.90
21302;DHT22;10810;48.270;9.996;2023-03-16T05:44:31;-0.60;99.90
21302;DHT22;10810;48.270;9.996;2023-03-16T05:46:58;-1.10;99.90
21302;DHT22;10810;48.270;9.996;2023-03-16T05:49:26;-0.20;99.90
21302;DHT22;10810;48.270;9.996;2023-03-16T05:52:03;-0.10;99.90
21302;DHT22;10810;48.270;9.996;2023-03-16T05:54:30;-1.00;99.90
21302;DHT22;10810;48.270;9.996;2023-03-16T05:56:59;-1.00;99.90
21302;DHT22;10810;48.270;9.996;2023-03-16T05:59:26;-1.00;99.90
21302;DHT22;10810;48.270;9.996;2023-03-16T06:01:53;-0.40;99.90
21302;DHT22;10810;48.270;9.996;2023-03-16T06:04:20;-0.80;99.90
21302;DHT22;10810;48.270;9.996;2023-03-16T06:06:47;-0.20;99.90
21302;DHT22;10810;48.270;9.996;2023-03-16T06:09:14;-0.70;99.90
21302;DHT22;10810;48.270;9.996;2023-03-16T06:11:41;-0.60;99.90
21302;DHT22;10810;48.270;9.996;2023-03-16T06:14:10;-0.60;99.90
21302;DHT22;10810;48.270;9.996;2023-03-16T06:16:37;0.30;99.90
21302;DHT22;10810;48.270;9.996;2023-03-16T06:19:04;-0.10;99.90
21302;DHT22;10810;48.270;9.996;2023-03-16T06:21:34;0.40;99.90
21302;DHT22;10810;48.270;9.996;2023-03-16T06:24:03;-0.40;99.90
21302;DHT22;10810;48.270;9.996;2023-03-16T06:26:32;-0.40;99.90
21302;DHT22;10810;48.270;9.996;2023-03-16T06:28:59;-0.30;99.90
21302;DHT22;10810;48.270;9.996;2023-03-16T06:31:28;0.10;99.90
21302;DHT22;10810;48.270;9.996;2023-03-16T06:33:55;0.40;99.90
21302;DHT22;10810;48.270;9.996;2023-03-16T06:36:22;0.00;99.90
21302;DHT22;10810;48.270;9.996;2023-03-16T06:38:49;0.10;99.90
21302;DHT22;10810;48.270;9.996;2023-03-16T06:41:16;0.10;99.90
21302;DHT22;10810;48.270;9.996;2023-03-16T06:43:43;0.50;99.90
21302;DHT22;10810;48.270;9.996;2023-03-16T06:46:11;-0.10;99.90
21302;DHT22;10810;48.270;9.996;2023-03-16T06:48:39;-0.10;99.90
21302;DHT22;10810;48.270;9.996;2023-03-16T06:51:07;0.70;99.90
21302;DHT22;10810;48.270;9.996;2023-03-16T06:53:34;0.90;99.90
21302;DHT22;10810;48.270;9.996;2023-03-16T06:56:01;0.20;99.90
21302;DHT22;10810;48.270;9.996;2023-03-16T06:58:28;0.30;99.90
21302;DHT22;10810;48.270;9.996;2023-03-16T07:00:55;0.90;99.90
21302;DHT22;10810;48.270;9.996;2023-03-16T07:03:25;0.70;99.90
21302;DHT22;10810;48.270;9.996;2023-03-16T07:05:56;0.80;99.90
21302;DHT22;10810;48.270;9.996;2023-03-16T07:08:23;0.80;99.90
21302;DHT22;10810;48.270;9.996;2023-03-16T07:10:50;1.00;99.90
21302;DHT22;10810;48.270;9.996;2023-03-16T07:13:19;1.00;99.90
21302;DHT22;10810;48.270;9.996;2023-03-16T07:15:48;1.00;99.90
21302;DHT22;10810;48.270;9.996;2023-03-16T07:18:16;1.10;99.90
21302;DHT22;10810;48.270;9.996;2023-03-16T07:20:44;1.20;99.90
21302;DHT22;10810;48.270;9.996;2023-03-16T07:23:12;1.30;99.90
21302;DHT22;10810;48.270;9.996;2023-03-16T07:25:41;1.10;99.90
21302;DHT22;10810;48.270;9.996;2023-03-16T07:28:09;1.20;99.90
21302;DHT22;10810;48.270;9.996;2023-03-16T07:30:36;1.30;99.90
21302;DHT22;10810;48.270;9.996;2023-03-16T07:33:03;1.10;99.90
21302;DHT22;10810;48.270;9.996;2023-03-16T07:35:30;1.60;99.90
21302;DHT22;10810;48.270;9.996;2023-03-16T07:37:57;1.50;99.90
21302;DHT22;10810;48.270;9.996;2023-03-16T07:40:31;1.50;99.90
21302;DHT22;10810;48.270;9.996;2023-03-16T07:43:12;1.40;99.90
21302;DHT22;10810;48.270;9.996;2023-03-16T07:45:49;1.60;99.90
21302;DHT22;10810;48.270;9.996;2023-03-16T07:48:21;1.60;99.90
21302;DHT22;10810;48.270;9.996;2023-03-16T07:50:53;1.60;99.90
21302;DHT22;10810;48.270;9.996;2023-03-16T07:53:54;1.70;99.90
21302;DHT22;10810;48.270;9.996;2023-03-16T07:56:49;1.50;99.90
21302;DHT22;10810;48.270;9.996;2023-03-16T07:59:37;2.00;99.90
21302;DHT22;10810;48.270;9.996;2023-03-16T08:02:28;1.80;99.90
21302;DHT22;10810;48.270;9.996;2023-03-16T08:04:56;1.80;99.90
21302;DHT22;10810;48.270;9.996;2023-03-16T08:07:36;1.90;99.90
21302;DHT22;10810;48.270;9.996;2023-03-16T08:10:28;1.80;99.90
21302;DHT22;10810;48.270;9.996;2023-03-16T08:13:10;1.90;99.90
21302;DHT22;10810;48.270;9.996;2023-03-16T08:15:40;1.90;99.90
21302;DHT22;10810;48.270;9.996;2023-03-16T08:18:14;2.10;99.90
21302;DHT22;10810;48.270;9.996;2023-03-16T08:21:05;2.00;99.90
21302;DHT22;10810;48.270;9.996;2023-03-16T08:24:01;1.70;99.90
21302;DHT22;10810;48.270;9.996;2023-03-16T08:36:06;2.30;99.90
21302;DHT22;10810;48.270;9.996;2023-03-16T08:40:32;2.30;99.90
21302;DHT22;10810;48.270;9.996;2023-03-16T08:43:45;2.50;99.90
21302;DHT22;10810;48.270;9.996;2023-03-16T08:53:54;2.60;99.90
21302;DHT22;10810;48.270;9.996;2023-03-16T08:57:15;2.60;99.90
21302;DHT22;10810;48.270;9.996;2023-03-16T09:01:22;2.70;99.90
21302;DHT22;10810;48.270;9.996;2023-03-16T09:03:59;2.50;99.90
21302;DHT22;10810;48.270;9.996;2023-03-16T09:10:27;2.90;99.90
21302;DHT22;10810;48.270;9.996;2023-03-16T09:34:50;3.80;99.90
21302;DHT22;10810;48.270;9.996;2023-03-16T09:41:28;3.90;99.90
21302;DHT22;10810;48.270;9.996;2023-03-16T09:57:54;4.50;99.90
21302;DHT22;10810;48.270;9.996;2023-03-16T10:01:37;4.70;99.90
21302;DHT22;10810;48.270;9.996;2023-03-16T10:35:50;5.70;99.90
21302;DHT22;10810;48.270;9.996;2023-03-16T12:20:35;11.30;89.10
21302;DHT22;10810;48.270;9.996;2023-03-16T16:08:59;10.80;82.60
21302;DHT22;10810;48.270;9.996;2023-03-16T16:28:11;10.20;90.00
21302;DHT22;10810;48.270;9.996;2023-03-16T16:30:49;10.10;91.80
21302;DHT22;10810;48.270;9.996;2023-03-16T16:40:19;10.10;90.60
21302;DHT22;10810;48.270;9.996;2023-03-16T16:49:30;9.90;91.20
21302;DHT22;10810;48.270;9.996;2023-03-16T16:55:29;9.80;92.00
21302;DHT22;10810;48.270;9.996;2023-03-16T16:57:59;9.70;91.70
21302;DHT22;10810;48.270;9.996;2023-03-16T17:00:30;9.60;91.90
21302;DHT22;10810;48.270;9.996;2023-03-16T17:03:28;9.50;93.30
21302;DHT22;10810;48.270;9.996;2023-03-16T17:06:22;9.50;93.70
21302;DHT22;10810;48.270;9.996;2023-03-16T17:08:57;9.40;93.20
21302;DHT22;10810;48.270;9.996;2023-03-16T17:11:29;9.40;94.40
21302;DHT22;10810;48.270;9.996;2023-03-16T17:14:17;9.40;95.30
21302;DHT22;10810;48.270;9.996;2023-03-16T17:17:22;9.30;95.20
21302;DHT22;10810;48.270;9.996;2023-03-16T17:21:56;9.20;94.40
21302;DHT22;10810;48.270;9.996;2023-03-16T17:26:38;9.10;95.80
21302;DHT22;10810;48.270;9.996;2023-03-16T17:32:55;9.00;97.50
21302;DHT22;10810;48.270;9.996;2023-03-16T17:56:27;9.00;99.90
21302;DHT22;10810;48.270;9.996;2023-03-16T18:04:59;7.90;99.90
21302;DHT22;10810;48.270;9.996;2023-03-16T18:08:09;7.90;99.90
21302;DHT22;10810;48.270;9.996;2023-03-16T18:11:23;7.70;99.90
21302;DHT22;10810;48.270;9.996;2023-03-16T18:14:06;7.70;99.90
21302;DHT22;10810;48.270;9.996;2023-03-16T18:16:43;7.50;99.90
21302;DHT22;10810;48.270;9.996;2023-03-16T18:22:22;7.30;99.90
21302;DHT22;10810;48.270;9.996;2023-03-16T18:24:56;7.30;99.90
21302;DHT22;10810;48.270;9.996;2023-03-16T18:27:35;7.10;99.90
21302;DHT22;10810;48.270;9.996;2023-03-16T18:30:14;7.30;99.90
21302;DHT22;10810;48.270;9.996;2023-03-16T18:32:50;6.80;99.90
21302;DHT22;10810;48.270;9.996;2023-03-16T18:35:24;7.00;99.90
21302;DHT22;10810;48.270;9.996;2023-03-16T18:37:58;6.90;99.90
21302;DHT22;10810;48.270;9.996;2023-03-16T18:40:27;6.80;99.90
21302;DHT22;10810;48.270;9.996;2023-03-16T18:43:02;6.80;99.90
21302;DHT22;10810;48.270;9.996;2023-03-16T18:45:34;6.70;99.90
21302;DHT22;10810;48.270;9.996;2023-03-16T18:48:16;6.70;99.90
21302;DHT22;10810;48.270;9.996;2023-03-16T18:50:45;6.00;99.90
21302;DHT22;10810;48.270;9.996;2023-03-16T18:53:26;6.70;99.90
21302;DHT22;10810;48.270;9.996;2023-03-16T18:56:20;6.60;99.90
21302;DHT22;10810;48.270;9.996;2023-03-16T18:59:05;5.90;99.90
21302;DHT22;10810;48.270;9.996;2023-03-16T19:01:35;6.40;99.90
21302;DHT22;10810;48.270;9.996;2023-03-16T19:04:05;6.40;99.90
21302;DHT22;10810;48.270;9.996;2023-03-16T19:06:38;6.40;99.90
21302;DHT22;10810;48.270;9.996;2023-03-16T19:09:13;6.30;99.90
21302;DHT22;10810;48.270;9.996;2023-03-16T19:11:43;6.30;99.90
21302;DHT22;10810;48.270;9.996;2023-03-16T19:14:23;6.30;99.90
21302;DHT22;10810;48.270;9.996;2023-03-16T19:16:55;6.20;99.90
21302;DHT22;10810;48.270;9.996;2023-03-16T19:19:44;6.30;99.90
21302;DHT22;10810;48.270;9.996;2023-03-16T19:22:42;6.10;99.90
21302;DHT22;10810;48.270;9.996;2023-03-16T19:25:39;6.00;99.90
21302;DHT22;10810;48.270;9.996;2023-03-16T19:28:42;5.90;99.90
21302;DHT22;10810;48.270;9.996;2023-03-16T19:31:18;5.90;99.90
21302;DHT22;10810;48.270;9.996;2023-03-16T19:33:46;5.30;99.90
21302;DHT22;10810;48.270;9.996;2023-03-16T19:36:20;5.90;99.90
21302;DHT22;10810;48.270;9.996;2023-03-16T19:38:52;5.80;99.90
21302;DHT22;10810;48.270;9.996;2023-03-16T19:41:39;5.60;99.90
21302;DHT22;10810;48.270;9.996;2023-03-16T19:44:14;5.60;99.90
21302;DHT22;10810;48.270;9.996;2023-03-16T19:46:54;5.50;99.90
21302;DHT22;10810;48.270;9.996;2023-03-16T19:49:46;5.40;99.90
21302;DHT22;10810;48.270;9.996;2023-03-16T19:52:35;5.50;99.90
21302;DHT22;10810;48.270;9.996;2023-03-16T19:55:15;5.40;99.90
21302;DHT22;10810;48.270;9.996;2023-03-16T19:58:00;5.40;99.90
21302;DHT22;10810;48.270;9.996;2023-03-16T20:00:33;5.30;99.90
21302;DHT22;10810;48.270;9.996;2023-03-16T20:03:08;5.20;99.90
21302;DHT22;10810;48.270;9.996;2023-03-16T20:05:37;5.20;99.90
21302;DHT22;10810;48.270;9.996;2023-03-16T20:08:23;5.20;99.90
21302;DHT22;10810;48.270;9.996;2023-03-16T20:10:52;5.10;99.90
21302;DHT22;10810;48.270;9.996;2023-03-16T20:13:26;5.00;99.90
21302;DHT22;10810;48.270;9.996;2023-03-16T20:16:03;5.00;99.90
21302;DHT22;10810;48.270;9.996;2023-03-16T20:18:38;4.80;99.90
21302;DHT22;10810;48.270;9.996;2023-03-16T20:21:13;4.90;99.90
21302;DHT22;10810;48.270;9.996;2023-03-16T20:24:13;4.80;99.90
21302;DHT22;10810;48.270;9.996;2023-03-16T20:26:34;4.70;99.90
21302;DHT22;10810;48.270;9.996;2023-03-16T20:29:02;4.60;99.90
21302;DHT22;10810;48.270;9.996;2023-03-16T20:31:35;4.60;99.90
21302;DHT22;10810;48.270;9.996;2023-03-16T20:34:17;4.50;99.90
21302;DHT22;10810;48.270;9.996;2023-03-16T20:36:51;4.50;99.90
21302;DHT22;10810;48.270;9.996;2023-03-16T20:39:22;4.40;99.90
21302;DHT22;10810;48.270;9.996;2023-03-16T20:41:50;4.40;99.90
21302;DHT22;10810;48.270;9.996;2023-03-16T20:44:21;4.30;99.90
21302;DHT22;10810;48.270;9.996;2023-03-16T20:46:51;4.00;99.90
21302;DHT22;10810;48.270;9.996;2023-03-16T20:49:32;4.10;99.90
21302;DHT22;10810;48.270;9.996;2023-03-16T20:52:17;4.10;99.90
21302;DHT22;10810;48.270;9.996;2023-03-16T20:54:46;3.90;99.90
21302;DHT22;10810;48.270;9.996;2023-03-16T20:57:15;4.10;99.90
21302;DHT22;10810;48.270;9.996;2023-03-16T20:59:43;4.00;99.90
21302;DHT22;10810;48.270;9.996;2023-03-16T21:02:29;3.90;99.90
21302;DHT22;10810;48.270;9.996;2023-03-16T21:04:59;3.90;99.90
21302;DHT22;10810;48.270;9.996;2023-03-16T21:07:28;3.80;99.90
21302;DHT22;10810;48.270;9.996;2023-03-16T21:09:57;3.80;99.90
21302;DHT22;10810;48.270;9.996;2023-03-16T21:12:27;3.80;99.90
21302;DHT22;10810;48.270;9.996;2023-03-16T21:14:55;3.70;99.90
21302;DHT22;10810;48.270;9.996;2023-03-16T21:17:35;3.80;99.90
21302;DHT22;10810;48.270;9.996;2023-03-16T21:20:22;3.70;99.90
21302;DHT22;10810;48.270;9.996;2023-03-16T21:22:49;3.60;99.90
21302;DHT22;10810;48.270;9.996;2023-03-16T21:25:19;3.50;99.90
21302;DHT22;10810;48.270;9.996;2023-03-16T21:27:47;3.50;99.90
21302;DHT22;10810;48.270;9.996;2023-03-16T21:30:41;3.40;99.90
21302;DHT22;10810;48.270;9.996;2023-03-16T21:33:15;3.40;99.90
21302;DHT22;10810;48.270;9.996;2023-03-16T21:35:46;3.40;99.90
21302;DHT22;10810;48.270;9.996;2023-03-16T21:38:29;3.40;99.90
21302;DHT22;10810;48.270;9.996;2023-03-16T21:41:02;3.40;99.90
21302;DHT22;10810;48.270;9.996;2023-03-16T21:43:39;3.40;99.90
21302;DHT22;10810;48.270;9.996;2023-03-16T21:46:14;3.30;99.90
21302;DHT22;10810;48.270;9.996;2023-03-16T21:48:43;3.20;99.90
21302;DHT22;10810;48.270;9.996;2023-03-16T21:51:14;3.00;99.90
21302;DHT22;10810;48.270;9.996;2023-03-16T21:53:43;3.10;99.90
21302;DHT22;10810;48.270;9.996;2023-03-16T21:56:12;3.00;99.90
21302;DHT22;10810;48.270;9.996;2023-03-16T21:58:40;3.00;99.90
21302;DHT22;10810;48.270;9.996;2023-03-16T22:01:18;3.00;99.90
21302;DHT22;10810;48.270;9.996;2023-03-16T22:03:48;3.00;99.90
21302;DHT22;10810;48.270;9.996;2023-03-16T22:06:22;3.00;99.90
21302;DHT22;10810;48.270;9.996;2023-03-16T22:08:49;3.10;99.90
21302;DHT22;10810;48.270;9.996;2023-03-16T22:11:18;3.00;99.90
21302;DHT22;10810;48.270;9.996;2023-03-16T22:13:50;3.00;99.90
21302;DHT22;10810;48.270;9.996;2023-03-16T22:16:33;2.90;99.90
21302;DHT22;10810;48.270;9.996;2023-03-16T22:19:03;3.00;99.90
21302;DHT22;10810;48.270;9.996;2023-03-16T22:21:41;2.80;99.90
21302;DHT22;10810;48.270;9.996;2023-03-16T22:24:18;2.80;99.90
21302;DHT22;10810;48.270;9.996;2023-03-16T22:26:50;2.80;99.90
21302;DHT22;10810;48.270;9.996;2023-03-16T22:29:23;2.90;99.90
21302;DHT22;10810;48.270;9.996;2023-03-16T22:32:09;2.80;99.90
21302;DHT22;10810;48.270;9.996;2023-03-16T22:41:02;1.50;99.90
21302;DHT22;10810;48.270;9.996;2023-03-16T22:43:42;2.60;99.90
21302;DHT22;10810;48.270;9.996;2023-03-16T22:46:17;2.60;99.90
21302;DHT22;10810;48.270;9.996;2023-03-16T22:48:55;1.40;99.90
21302;DHT22;10810;48.270;9.996;2023-03-16T22:51:51;2.70;99.90
21302;DHT22;10810;48.270;9.996;2023-03-16T22:54:45;2.50;99.90
21302;DHT22;10810;48.270;9.996;2023-03-16T22:57:16;2.60;99.90
21302;DHT22;10810;48.270;9.996;2023-03-16T22:59:50;2.40;99.90
21302;DHT22;10810;48.270;9.996;2023-03-16T23:02:24;2.70;99.90
21302;DHT22;10810;48.270;9.996;2023-03-16T23:04:59;2.50;99.90
21302;DHT22;10810;48.270;9.996;2023-03-16T23:07:28;2.10;99.90
21302;DHT22;10810;48.270;9.996;2023-03-16T23:09:55;2.40;99.90
21302;DHT22;10810;48.270;9.996;2023-03-16T23:12:25;2.60;99.90
21302;DHT22;10810;48.270;9.996;2023-03-16T23:14:52;2.40;99.90
21302;DHT22;10810;48.270;9.996;2023-03-16T23:17:20;2.40;99.90
21302;DHT22;10810;48.270;9.996;2023-03-16T23:19:47;2.40;99.90
21302;DHT22;10810;48.270;9.996;2023-03-16T23:22:15;2.40;99.90
21302;DHT22;10810;48.270;9.996;2023-03-16T23:24:42;2.40;99.90
21302;DHT22;10810;48.270;9.996;2023-03-16T23:27:15;2.40;99.90
21302;DHT22;10810;48.270;9.996;2023-03-16T23:29:44;2.30;99.90
21302;DHT22;10810;48.270;9.996;2023-03-16T23:32:12;2.30;99.90
21302;DHT22;10810;48.270;9.996;2023-03-16T23:34:40;2.30;99.90
21302;DHT22;10810;48.270;9.996;2023-03-16T23:37:07;2.30;99.90
21302;DHT22;10810;48.270;9.996;2023-03-16T23:39:34;2.20;99.90
21302;DHT22;10810;48.270;9.996;2023-03-16T23:42:01;2.40;99.90
21302;DHT22;10810;48.270;9.996;2023-03-16T23:44:29;2.30;99.90
21302;DHT22;10810;48.270;9.996;2023-03-16T23:46:58;2.20;99.90
21302;DHT22;10810;48.270;9.996;2023-03-16T23:49:28;2.20;99.90
21302;DHT22;10810;48.270;9.996;2023-03-16T23:51:57;2.10;99.90
21302;DHT22;10810;48.270;9.996;2023-03-16T23:54:27;2.10;99.90
21302;DHT22;10810;48.270;9.996;2023-03-16T23:56:54;2.10;99.90
21302;DHT22;10810;48.270;9.996;2023-03-16T23:59:21;2.20;99.90
